createdAt,value
2018-07-09T00:00:23.921Z,0
2018-07-09T00:01:24.645Z,0
2018-07-09T00:02:25.355Z,0
2018-07-09T00:03:26.067Z,0
2018-07-09T00:04:26.779Z,0
2018-07-09T00:05:27.493Z,0
2018-07-09T00:06:28.218Z,0
2018-07-09T00:07:28.941Z,0
2018-07-09T00:08:29.652Z,0
2018-07-09T00:09:30.367Z,0
2018-07-09T00:10:31.090Z,0
2018-07-09T00:11:31.804Z,0
2018-07-09T00:12:32.526Z,0
2018-07-09T00:13:33.240Z,0
2018-07-09T00:14:33.954Z,0
2018-07-09T00:15:34.670Z,0
2018-07-09T00:16:35.384Z,0
2018-07-09T00:17:36.097Z,0
2018-07-09T00:18:36.810Z,0
2018-07-09T00:19:37.524Z,0
2018-07-09T00:20:38.237Z,0
2018-07-09T00:21:38.949Z,0
2018-07-09T00:22:39.683Z,0
2018-07-09T00:23:40.389Z,0
2018-07-09T00:24:41.098Z,0
2018-07-09T00:25:41.809Z,0
2018-07-09T00:26:42.524Z,0
2018-07-09T00:27:43.236Z,0
2018-07-09T00:28:43.948Z,0
2018-07-09T00:29:44.665Z,0
2018-07-09T00:30:45.384Z,0
2018-07-09T00:31:46.097Z,0
2018-07-09T00:32:46.819Z,0
2018-07-09T00:33:47.533Z,0
2018-07-09T00:34:48.256Z,0
2018-07-09T00:35:48.968Z,0
2018-07-09T00:36:49.679Z,0
2018-07-09T00:37:50.391Z,0
2018-07-09T00:38:51.105Z,0
2018-07-09T00:39:51.826Z,0
2018-07-09T00:40:52.538Z,0
2018-07-09T00:41:53.249Z,0
2018-07-09T00:42:53.973Z,0
2018-07-09T00:43:54.686Z,0
2018-07-09T00:44:55.400Z,0
2018-07-09T00:45:56.115Z,0
2018-07-09T00:46:56.828Z,0
2018-07-09T00:47:57.541Z,0
2018-07-09T00:48:58.252Z,0
2018-07-09T00:49:58.976Z,0
2018-07-09T00:50:59.712Z,0
2018-07-09T00:52:00.401Z,0
2018-07-09T00:53:01.124Z,0
2018-07-09T00:54:01.836Z,0
2018-07-09T00:55:02.551Z,0
2018-07-09T00:56:03.258Z,0
2018-07-09T00:57:03.972Z,0
2018-07-09T00:58:04.687Z,0
2018-07-09T00:59:05.396Z,0
2018-07-09T01:00:06.121Z,0
2018-07-09T01:01:06.832Z,0
2018-07-09T01:02:07.542Z,0
2018-07-09T01:03:08.253Z,0
2018-07-09T01:04:08.966Z,0
2018-07-09T01:05:09.676Z,0
2018-07-09T01:06:10.391Z,0
2018-07-09T01:07:11.103Z,0
2018-07-09T01:08:11.816Z,0
2018-07-09T01:09:12.530Z,0
2018-07-09T01:10:13.254Z,0
2018-07-09T01:11:13.985Z,0
2018-07-09T01:12:14.678Z,0
2018-07-09T01:13:15.390Z,0
2018-07-09T01:14:16.103Z,0
2018-07-09T01:15:16.825Z,0
2018-07-09T01:16:17.538Z,0
2018-07-09T01:17:18.260Z,0
2018-07-09T01:18:18.972Z,0
2018-07-09T01:19:19.696Z,0
2018-07-09T01:20:20.437Z,0
2018-07-09T01:21:21.117Z,0
2018-07-09T01:22:21.828Z,0
2018-07-09T01:23:22.539Z,0
2018-07-09T01:24:23.253Z,0
2018-07-09T01:25:23.965Z,0
2018-07-09T01:26:24.676Z,0
2018-07-09T01:27:25.427Z,0
2018-07-09T01:28:26.112Z,0
2018-07-09T01:29:26.823Z,0
2018-07-09T01:30:27.534Z,0
2018-07-09T01:31:28.246Z,0
2018-07-09T01:32:28.958Z,0
2018-07-09T01:33:29.671Z,0
2018-07-09T01:34:30.387Z,0
2018-07-09T01:35:31.094Z,0
2018-07-09T01:36:31.808Z,0
2018-07-09T01:37:32.521Z,0
2018-07-09T01:38:33.235Z,0
2018-07-09T01:39:33.952Z,0
2018-07-09T01:40:34.659Z,0
2018-07-09T01:41:35.370Z,0
2018-07-09T01:42:36.083Z,0
2018-07-09T01:43:36.795Z,0
2018-07-09T01:44:37.505Z,0
2018-07-09T01:45:38.217Z,0
2018-07-09T01:46:38.929Z,0
2018-07-09T01:47:39.653Z,0
2018-07-09T01:48:40.379Z,0
2018-07-09T01:49:41.090Z,0
2018-07-09T01:50:41.803Z,0
2018-07-09T01:51:42.526Z,0
2018-07-09T01:52:43.242Z,0
2018-07-09T01:53:43.954Z,0
2018-07-09T01:54:44.666Z,0
2018-07-09T01:55:45.380Z,0
2018-07-09T01:56:46.106Z,0
2018-07-09T01:57:46.816Z,0
2018-07-09T01:58:47.527Z,0
2018-07-09T01:59:48.239Z,0
2018-07-09T02:00:48.952Z,0
2018-07-09T02:01:49.674Z,0
2018-07-09T02:02:50.385Z,0
2018-07-09T02:03:51.094Z,0
2018-07-09T02:04:51.817Z,0
2018-07-09T02:05:52.528Z,0
2018-07-09T02:06:53.253Z,0
2018-07-09T02:07:53.964Z,0
2018-07-09T02:08:54.677Z,0
2018-07-09T02:09:55.389Z,0
2018-07-09T02:10:56.101Z,0
2018-07-09T02:11:56.814Z,0
2018-07-09T02:12:57.526Z,0
2018-07-09T02:13:58.244Z,0
2018-07-09T02:14:58.952Z,0
2018-07-09T02:15:59.676Z,0
2018-07-09T02:17:00.387Z,0
2018-07-09T02:18:01.102Z,0
2018-07-09T02:19:01.813Z,0
2018-07-09T02:20:02.539Z,0
2018-07-09T02:21:03.253Z,0
2018-07-09T02:22:03.967Z,0
2018-07-09T02:23:04.681Z,0
2018-07-09T02:24:05.394Z,0
2018-07-09T02:25:06.118Z,0
2018-07-09T02:26:06.829Z,0
2018-07-09T02:27:07.543Z,0
2018-07-09T02:28:08.252Z,0
2018-07-09T02:29:08.964Z,0
2018-07-09T02:30:09.675Z,0
2018-07-09T02:31:10.401Z,0
2018-07-09T02:32:11.125Z,0
2018-07-09T02:33:11.838Z,0
2018-07-09T02:34:12.548Z,0
2018-07-09T02:35:13.273Z,0
2018-07-09T02:36:13.986Z,0
2018-07-09T02:37:14.711Z,0
2018-07-09T02:38:15.433Z,0
2018-07-09T02:39:16.146Z,0
2018-07-09T02:40:16.859Z,0
2018-07-09T02:41:17.568Z,0
2018-07-09T02:42:18.281Z,4
2018-07-09T02:43:18.992Z,4
2018-07-09T02:44:19.715Z,4
2018-07-09T02:45:20.425Z,0
2018-07-09T02:46:21.163Z,4
2018-07-09T02:47:21.860Z,4
2018-07-09T02:48:22.574Z,4
2018-07-09T02:49:23.286Z,4
2018-07-09T02:50:24.014Z,8
2018-07-09T02:51:24.723Z,4
2018-07-09T02:52:25.437Z,8
2018-07-09T02:53:26.150Z,8
2018-07-09T02:54:26.861Z,8
2018-07-09T02:55:27.585Z,12
2018-07-09T02:56:28.299Z,12
2018-07-09T02:57:29.024Z,16
2018-07-09T02:58:29.737Z,16
2018-07-09T02:59:30.462Z,20
2018-07-09T03:00:31.189Z,20
2018-07-09T03:01:31.902Z,20
2018-07-09T03:02:32.614Z,24
2018-07-09T03:03:33.338Z,28
2018-07-09T03:04:34.053Z,28
2018-07-09T03:05:34.768Z,32
2018-07-09T03:06:35.493Z,40
2018-07-09T03:07:36.205Z,40
2018-07-09T03:08:36.918Z,48
2018-07-09T03:09:37.632Z,56
2018-07-09T03:10:38.345Z,56
2018-07-09T03:11:39.069Z,64
2018-07-09T03:12:39.781Z,72
2018-07-09T03:13:40.494Z,80
2018-07-09T03:14:41.211Z,84
2018-07-09T03:15:41.922Z,92
2018-07-09T03:16:42.635Z,96
2018-07-09T03:17:43.363Z,104
2018-07-09T03:18:44.076Z,112
2018-07-09T03:19:44.801Z,120
2018-07-09T03:20:45.515Z,128
2018-07-09T03:21:46.227Z,136
2018-07-09T03:22:46.940Z,148
2018-07-09T03:23:47.652Z,152
2018-07-09T03:24:48.365Z,164
2018-07-09T03:25:49.080Z,172
2018-07-09T03:26:49.795Z,184
2018-07-09T03:27:50.523Z,196
2018-07-09T03:28:51.239Z,204
2018-07-09T03:29:51.956Z,220
2018-07-09T03:30:52.678Z,232
2018-07-09T03:31:53.391Z,248
2018-07-09T03:32:54.106Z,260
2018-07-09T03:33:54.839Z,276
2018-07-09T03:34:55.562Z,288
2018-07-09T03:35:56.277Z,308
2018-07-09T03:36:56.991Z,320
2018-07-09T03:37:57.707Z,340
2018-07-09T03:38:58.438Z,360
2018-07-09T03:39:59.153Z,376
2018-07-09T03:40:59.868Z,396
2018-07-09T03:42:00.584Z,416
2018-07-09T03:43:01.299Z,440
2018-07-09T03:44:02.013Z,456
2018-07-09T03:45:02.729Z,476
2018-07-09T03:46:03.444Z,500
2018-07-09T03:47:04.169Z,528
2018-07-09T03:48:04.885Z,552
2018-07-09T03:49:05.613Z,580
2018-07-09T03:50:06.328Z,612
2018-07-09T03:51:07.045Z,644
2018-07-09T03:52:07.759Z,680
2018-07-09T03:53:08.475Z,720
2018-07-09T03:54:09.191Z,756
2018-07-09T03:55:09.907Z,780
2018-07-09T03:56:10.622Z,804
2018-07-09T03:57:11.337Z,828
2018-07-09T03:58:12.054Z,852
2018-07-09T03:59:12.769Z,872
2018-07-09T04:00:13.486Z,892
2018-07-09T04:01:14.204Z,920
2018-07-09T04:02:14.943Z,940
2018-07-09T04:03:15.638Z,960
2018-07-09T04:04:16.352Z,984
2018-07-09T04:05:17.067Z,1004
2018-07-09T04:06:17.784Z,1024
2018-07-09T04:07:18.500Z,1048
2018-07-09T04:08:19.216Z,1064
2018-07-09T04:09:19.949Z,1088
2018-07-09T04:10:20.722Z,1108
2018-07-09T04:11:21.406Z,1128
2018-07-09T04:12:22.123Z,1152
2018-07-09T04:13:22.842Z,1176
2018-07-09T04:14:23.569Z,1196
2018-07-09T04:15:24.300Z,1216
2018-07-09T04:16:25.028Z,1236
2018-07-09T04:17:25.743Z,1256
2018-07-09T04:18:26.472Z,1280
2018-07-09T04:19:27.188Z,1296
2018-07-09T04:20:27.907Z,1316
2018-07-09T04:21:28.623Z,1340
2018-07-09T04:22:29.343Z,1356
2018-07-09T04:23:30.061Z,1372
2018-07-09T04:24:30.778Z,1388
2018-07-09T04:25:31.494Z,1408
2018-07-09T04:26:32.211Z,1424
2018-07-09T04:27:32.928Z,1440
2018-07-09T04:28:33.650Z,1464
2018-07-09T04:29:34.365Z,1484
2018-07-09T04:30:35.082Z,1508
2018-07-09T04:31:35.800Z,1524
2018-07-09T04:32:36.519Z,1544
2018-07-09T04:33:37.241Z,1560
2018-07-09T04:34:37.958Z,1580
2018-07-09T04:35:38.678Z,1592
2018-07-09T04:36:39.404Z,1604
2018-07-09T04:37:40.126Z,1620
2018-07-09T04:38:40.843Z,1640
2018-07-09T04:39:41.559Z,1656
2018-07-09T04:40:42.288Z,1668
2018-07-09T04:41:43.007Z,1692
2018-07-09T04:42:43.724Z,1700
2018-07-09T04:43:44.443Z,1716
2018-07-09T04:44:45.162Z,1732
2018-07-09T04:45:45.882Z,1748
2018-07-09T04:46:46.611Z,1768
2018-07-09T04:47:47.328Z,1788
2018-07-09T04:48:48.046Z,1800
2018-07-09T04:49:48.762Z,1820
2018-07-09T04:50:49.483Z,1840
2018-07-09T04:51:50.202Z,1852
2018-07-09T04:52:50.920Z,1864
2018-07-09T04:53:51.637Z,1888
2018-07-09T04:54:52.353Z,1900
2018-07-09T04:55:53.074Z,1916
2018-07-09T04:56:53.791Z,1924
2018-07-09T04:57:54.508Z,1932
2018-07-09T04:58:55.224Z,1948
2018-07-09T04:59:55.945Z,1960
2018-07-09T05:00:56.668Z,1972
2018-07-09T05:01:57.399Z,1988
2018-07-09T05:02:58.113Z,2004
2018-07-09T05:03:58.845Z,2012
2018-07-09T05:04:59.565Z,2024
2018-07-09T05:06:00.287Z,2036
2018-07-09T05:07:01.004Z,2044
2018-07-09T05:08:01.735Z,2048
2018-07-09T05:09:02.464Z,2060
2018-07-09T05:10:03.181Z,2068
2018-07-09T05:11:03.900Z,2076
2018-07-09T05:12:04.616Z,2096
2018-07-09T05:13:05.393Z,2104
2018-07-09T05:14:06.069Z,2108
2018-07-09T05:15:06.786Z,2136
2018-07-09T05:16:07.521Z,2156
2018-07-09T05:17:08.248Z,2172
2018-07-09T05:18:08.968Z,2188
2018-07-09T05:19:09.686Z,2208
2018-07-09T05:20:10.403Z,2232
2018-07-09T05:21:11.124Z,2248
2018-07-09T05:22:11.843Z,2260
2018-07-09T05:23:12.574Z,2276
2018-07-09T05:24:13.293Z,2296
2018-07-09T05:25:14.024Z,2312
2018-07-09T05:26:14.744Z,2332
2018-07-09T05:27:15.462Z,2352
2018-07-09T05:28:16.181Z,2372
2018-07-09T05:29:16.900Z,2376
2018-07-09T05:30:17.624Z,2400
2018-07-09T05:31:18.339Z,2416
2018-07-09T05:32:19.055Z,2432
2018-07-09T05:33:19.845Z,2456
2018-07-09T05:34:20.496Z,2472
2018-07-09T05:35:21.212Z,2480
2018-07-09T05:36:21.930Z,2488
2018-07-09T05:37:22.662Z,2484
2018-07-09T05:38:23.380Z,2488
2018-07-09T05:39:24.110Z,2492
2018-07-09T05:40:24.845Z,2528
2018-07-09T05:41:25.574Z,2572
2018-07-09T05:42:26.293Z,2560
2018-07-09T05:43:27.012Z,2588
2018-07-09T05:44:27.730Z,2604
2018-07-09T05:45:28.452Z,2612
2018-07-09T05:46:29.171Z,2596
2018-07-09T05:47:29.900Z,2660
2018-07-09T05:48:30.631Z,2700
2018-07-09T05:49:31.360Z,2708
2018-07-09T05:50:32.079Z,2776
2018-07-09T05:51:32.813Z,2816
2018-07-09T05:52:33.533Z,2848
2018-07-09T05:53:34.254Z,2928
2018-07-09T05:54:34.975Z,2980
2018-07-09T05:55:35.707Z,3128
2018-07-09T05:56:36.427Z,3432
2018-07-09T05:57:37.148Z,3876
2018-07-09T05:58:37.880Z,4004
2018-07-09T05:59:38.600Z,4360
2018-07-09T06:00:39.320Z,4852
2018-07-09T06:01:40.042Z,5080
2018-07-09T06:02:40.764Z,5736
2018-07-09T06:03:41.485Z,6708
2018-07-09T06:04:42.202Z,6756
2018-07-09T06:05:42.936Z,7012
2018-07-09T06:06:43.670Z,6696
2018-07-09T06:07:44.392Z,7356
2018-07-09T06:08:45.123Z,7208
2018-07-09T06:09:45.846Z,7560
2018-07-09T06:10:46.565Z,7536
2018-07-09T06:11:47.296Z,7724
2018-07-09T06:12:48.019Z,8116
2018-07-09T06:13:48.753Z,7856
2018-07-09T06:14:49.474Z,7504
2018-07-09T06:15:50.196Z,7312
2018-07-09T06:16:50.933Z,7380
2018-07-09T06:17:51.650Z,7576
2018-07-09T06:18:52.371Z,7708
2018-07-09T06:19:53.092Z,7600
2018-07-09T06:20:53.826Z,7444
2018-07-09T06:21:54.552Z,7488
2018-07-09T06:22:55.267Z,7516
2018-07-09T06:23:55.987Z,7648
2018-07-09T06:24:56.709Z,7612
2018-07-09T06:25:57.441Z,7408
2018-07-09T06:26:58.160Z,7448
2018-07-09T06:27:58.883Z,7520
2018-07-09T06:28:59.611Z,7628
2018-07-09T06:30:00.332Z,7524
2018-07-09T06:31:01.056Z,7408
2018-07-09T06:32:01.778Z,7456
2018-07-09T06:33:02.499Z,7476
2018-07-09T06:34:03.220Z,7284
2018-07-09T06:35:03.942Z,7148
2018-07-09T06:36:04.664Z,7152
2018-07-09T06:37:05.385Z,7124
2018-07-09T06:38:06.106Z,7148
2018-07-09T06:39:06.831Z,7176
2018-07-09T06:40:07.552Z,7416
2018-07-09T06:41:08.276Z,7796
2018-07-09T06:42:09.007Z,7944
2018-07-09T06:43:09.731Z,8160
2018-07-09T06:44:10.459Z,8304
2018-07-09T06:45:11.189Z,8280
2018-07-09T06:46:11.925Z,8332
2018-07-09T06:47:12.648Z,8564
2018-07-09T06:48:13.388Z,8580
2018-07-09T06:49:14.109Z,8380
2018-07-09T06:50:14.832Z,8828
2018-07-09T06:51:15.569Z,8952
2018-07-09T06:52:16.292Z,9532
2018-07-09T06:53:17.011Z,9896
2018-07-09T06:54:17.737Z,9760
2018-07-09T06:55:18.471Z,9920
2018-07-09T06:56:19.197Z,10216
2018-07-09T06:57:19.923Z,10508
2018-07-09T06:58:20.651Z,10696
2018-07-09T06:59:21.380Z,10684
2018-07-09T07:00:22.115Z,11164
2018-07-09T07:01:22.849Z,11132
2018-07-09T07:02:23.606Z,11112
2018-07-09T07:03:24.311Z,11204
2018-07-09T07:04:25.039Z,10948
2018-07-09T07:05:25.769Z,10832
2018-07-09T07:06:26.496Z,10396
2018-07-09T07:07:27.231Z,11060
2018-07-09T07:08:27.954Z,11404
2018-07-09T07:09:28.681Z,11620
2018-07-09T07:10:29.420Z,11548
2018-07-09T07:11:30.147Z,11340
2018-07-09T07:12:30.875Z,11640
2018-07-09T07:13:31.642Z,11916
2018-07-09T07:14:32.329Z,11852
2018-07-09T07:15:33.055Z,11256
2018-07-09T07:16:33.784Z,11076
2018-07-09T07:17:34.512Z,11096
2018-07-09T07:18:35.252Z,11972
2018-07-09T07:19:35.980Z,13012
2018-07-09T07:20:36.707Z,13076
2018-07-09T07:21:37.448Z,12148
2018-07-09T07:22:38.175Z,11400
2018-07-09T07:23:38.916Z,11516
2018-07-09T07:24:39.657Z,11604
2018-07-09T07:25:40.386Z,12472
2018-07-09T07:26:41.115Z,14000
2018-07-09T07:27:41.845Z,12836
2018-07-09T07:28:42.575Z,13664
2018-07-09T07:29:43.302Z,14272
2018-07-09T07:30:44.033Z,14032
2018-07-09T07:31:44.763Z,13368
2018-07-09T07:32:45.519Z,12376
2018-07-09T07:33:46.232Z,11716
2018-07-09T07:34:46.960Z,12472
2018-07-09T07:35:47.688Z,11876
2018-07-09T07:36:48.418Z,10708
2018-07-09T07:37:49.160Z,11448
2018-07-09T07:38:49.887Z,11704
2018-07-09T07:39:50.628Z,11756
2018-07-09T07:40:51.358Z,11964
2018-07-09T07:41:52.090Z,12560
2018-07-09T07:42:52.816Z,13252
2018-07-09T07:43:53.559Z,13144
2018-07-09T07:44:54.322Z,12580
2018-07-09T07:45:55.024Z,12180
2018-07-09T07:46:55.755Z,12272
2018-07-09T07:47:56.483Z,13316
2018-07-09T07:48:57.211Z,13968
2018-07-09T07:49:57.943Z,15128
2018-07-09T07:50:58.672Z,16704
2018-07-09T07:51:59.401Z,18272
2018-07-09T07:53:00.130Z,18432
2018-07-09T07:54:00.873Z,17824
2018-07-09T07:55:01.603Z,15588
2018-07-09T07:56:02.339Z,15028
2018-07-09T07:57:03.062Z,16024
2018-07-09T07:58:03.804Z,18592
2018-07-09T07:59:04.538Z,17792
2018-07-09T08:00:05.264Z,18784
2018-07-09T08:01:05.996Z,19552
2018-07-09T08:02:06.725Z,17536
2018-07-09T08:03:07.455Z,14848
2018-07-09T08:04:08.186Z,15572
2018-07-09T08:05:08.928Z,14036
2018-07-09T08:06:09.653Z,13428
2018-07-09T08:07:10.379Z,16832
2018-07-09T08:08:11.107Z,11544
2018-07-09T08:09:11.843Z,13264
2018-07-09T08:10:12.564Z,12624
2018-07-09T08:11:13.294Z,10228
2018-07-09T08:13:00.559Z,9740
2018-07-09T08:13:27.978Z,9936
2018-07-09T08:14:15.493Z,16148
2018-07-09T08:15:16.223Z,24768
2018-07-09T08:16:16.961Z,35680
2018-07-09T08:17:17.688Z,39680
2018-07-09T08:18:18.436Z,33088
2018-07-09T08:19:19.154Z,26400
2018-07-09T08:20:19.887Z,25184
2018-07-09T08:21:20.614Z,38208
2018-07-09T08:22:21.346Z,39776
2018-07-09T08:23:22.069Z,33984
2018-07-09T08:24:22.798Z,34080
2018-07-09T08:25:23.654Z,30848
2018-07-09T08:26:24.265Z,43776
2018-07-09T08:27:24.999Z,40192
2018-07-09T08:28:25.724Z,55168
2018-07-09T08:29:26.454Z,61376
2018-07-09T08:30:27.184Z,78144
2018-07-09T08:31:28.067Z,79680
2018-07-09T08:32:28.645Z,66688
2018-07-09T08:33:29.378Z,81216
2018-07-09T08:34:30.112Z,80064
2018-07-09T08:35:30.854Z,78368
2018-07-09T08:36:31.585Z,81696
2018-07-09T08:37:32.319Z,81664
2018-07-09T08:38:33.065Z,81824
2018-07-09T08:39:33.798Z,78688
2018-07-09T08:40:34.533Z,62976
2018-07-09T08:41:35.265Z,67360
2018-07-09T08:42:36.000Z,65664
2018-07-09T08:43:36.744Z,69440
2018-07-09T08:44:37.490Z,71712
2018-07-09T08:45:38.223Z,41728
2018-07-09T08:46:38.957Z,73184
2018-07-09T08:47:39.695Z,71104
2018-07-09T08:48:40.423Z,76576
2018-07-09T08:49:41.159Z,72032
2018-07-09T08:50:41.892Z,76096
2018-07-09T08:51:42.630Z,85344
2018-07-09T08:52:43.361Z,85920
2018-07-09T08:53:44.101Z,98656
2018-07-09T08:54:44.834Z,90368
2018-07-09T08:55:45.574Z,70144
2018-07-09T08:56:46.314Z,78432
2018-07-09T08:57:47.053Z,74784
2018-07-09T08:58:47.792Z,86048
2018-07-09T08:59:48.529Z,83616
2018-07-09T09:00:49.274Z,70944
2018-07-09T09:01:50.017Z,58048
2018-07-09T09:02:50.756Z,84128
2018-07-09T09:03:51.544Z,87968
2018-07-09T09:04:52.246Z,104672
2018-07-09T09:05:52.993Z,90784
2018-07-09T09:06:53.733Z,29408
2018-07-09T09:07:54.477Z,25824
2018-07-09T09:08:55.221Z,23008
2018-07-09T09:09:55.976Z,28096
2018-07-09T09:10:56.717Z,28384
2018-07-09T09:11:57.454Z,34464
2018-07-09T09:12:58.193Z,26688
2018-07-09T09:13:58.935Z,26208
2018-07-09T09:14:59.671Z,23904
2018-07-09T09:16:00.405Z,19808
2018-07-09T09:17:01.138Z,16608
2018-07-09T09:18:01.867Z,11664
2018-07-09T09:19:02.601Z,10164
2018-07-09T09:20:03.328Z,11668
2018-07-09T09:21:04.061Z,13080
2018-07-09T09:22:04.789Z,14656
2018-07-09T09:23:05.518Z,14904
2018-07-09T09:24:06.259Z,14340
2018-07-09T09:25:06.990Z,14676
2018-07-09T09:26:07.721Z,13852
2018-07-09T09:27:08.461Z,13696
2018-07-09T09:28:09.207Z,14808
2018-07-09T09:29:09.933Z,17696
2018-07-09T09:30:10.663Z,20224
2018-07-09T09:31:11.446Z,19776
2018-07-09T09:32:12.133Z,20032
2018-07-09T09:33:12.877Z,21216
2018-07-09T09:34:13.607Z,18272
2018-07-09T09:35:14.348Z,16576
2018-07-09T09:36:15.076Z,16512
2018-07-09T09:37:15.805Z,17696
2018-07-09T09:38:16.532Z,19680
2018-07-09T09:39:17.262Z,21376
2018-07-09T09:40:17.992Z,22848
2018-07-09T09:41:18.720Z,23264
2018-07-09T09:42:19.450Z,18976
2018-07-09T09:43:20.174Z,14240
2018-07-09T09:44:20.903Z,11688
2018-07-09T09:45:21.629Z,13060
2018-07-09T09:46:22.371Z,19968
2018-07-09T09:47:23.109Z,17792
2018-07-09T09:48:23.838Z,15008
2018-07-09T09:49:24.618Z,18496
2018-07-09T09:50:25.310Z,15696
2018-07-09T09:51:26.036Z,15372
2018-07-09T09:52:26.761Z,12972
2018-07-09T09:53:27.501Z,13000
2018-07-09T09:54:28.242Z,12412
2018-07-09T09:55:28.969Z,11276
2018-07-09T09:56:29.707Z,10896
2018-07-09T09:57:30.450Z,11832
2018-07-09T09:58:31.176Z,11064
2018-07-09T09:59:31.900Z,9692
2018-07-09T10:00:32.680Z,9164
2018-07-09T10:01:33.354Z,10616
2018-07-09T10:02:34.093Z,13036
2018-07-09T10:03:34.821Z,14196
2018-07-09T10:04:35.552Z,15160
2018-07-09T10:05:36.278Z,16928
2018-07-09T10:06:37.010Z,16832
2018-07-09T10:07:37.738Z,15792
2018-07-09T10:08:38.521Z,17760
2018-07-09T10:09:39.204Z,19488
2018-07-09T10:10:39.940Z,20704
2018-07-09T10:11:40.667Z,21216
2018-07-09T10:12:41.392Z,23264
2018-07-09T10:13:42.120Z,23456
2018-07-09T10:14:42.848Z,23712
2018-07-09T10:15:43.578Z,23200
2018-07-09T10:16:44.319Z,22592
2018-07-09T10:17:45.056Z,22624
2018-07-09T10:18:45.797Z,21792
2018-07-09T10:19:46.525Z,21792
2018-07-09T10:20:47.251Z,22560
2018-07-09T10:21:47.981Z,22976
2018-07-09T10:22:48.731Z,21056
2018-07-09T10:23:49.447Z,21280
2018-07-09T10:24:50.166Z,20800
2018-07-09T10:25:50.905Z,22784
2018-07-09T10:26:51.634Z,18176
2018-07-09T10:27:52.363Z,15024
2018-07-09T10:28:53.092Z,13344
2018-07-09T10:29:53.821Z,12384
2018-07-09T10:30:54.557Z,12152
2018-07-09T10:31:55.285Z,11024
2018-07-09T10:32:56.011Z,9320
2018-07-09T10:33:56.736Z,8932
2018-07-09T10:34:57.464Z,9380
2018-07-09T10:35:58.191Z,8688
2018-07-09T10:36:58.916Z,7144
2018-07-09T10:37:59.641Z,6556
2018-07-09T10:39:00.365Z,6372
2018-07-09T10:40:01.090Z,5644
2018-07-09T10:41:01.816Z,5336
2018-07-09T10:42:02.539Z,5996
2018-07-09T10:43:03.264Z,7344
2018-07-09T10:44:03.987Z,7852
2018-07-09T10:45:04.725Z,8572
2018-07-09T10:46:05.452Z,9108
2018-07-09T10:47:06.235Z,9724
2018-07-09T10:48:06.908Z,12560
2018-07-09T10:49:07.650Z,15404
2018-07-09T10:50:08.386Z,14920
2018-07-09T10:51:09.112Z,12832
2018-07-09T10:52:09.836Z,10464
2018-07-09T10:53:10.562Z,8844
2018-07-09T10:54:11.286Z,8052
2018-07-09T10:55:12.023Z,7596
2018-07-09T10:56:12.739Z,8152
2018-07-09T10:57:13.473Z,8392
2018-07-09T10:58:14.197Z,8468
2018-07-09T10:59:14.921Z,9384
2018-07-09T11:00:15.661Z,11192
2018-07-09T11:01:16.387Z,13908
2018-07-09T11:02:17.115Z,15068
2018-07-09T11:03:17.840Z,16704
2018-07-09T11:04:18.565Z,16896
2018-07-09T11:05:19.292Z,14284
2018-07-09T11:06:20.030Z,11864
2018-07-09T11:07:20.762Z,9972
2018-07-09T11:08:21.481Z,8084
2018-07-09T11:09:22.208Z,6464
2018-07-09T11:10:22.934Z,5080
2018-07-09T11:11:23.658Z,4204
2018-07-09T11:12:24.395Z,3732
2018-07-09T11:13:25.119Z,3916
2018-07-09T11:14:25.845Z,4220
2018-07-09T11:15:26.570Z,4432
2018-07-09T11:16:27.293Z,4596
2018-07-09T11:17:28.018Z,5180
2018-07-09T11:18:28.746Z,5596
2018-07-09T11:19:29.473Z,5420
2018-07-09T11:20:30.206Z,5160
2018-07-09T11:21:30.976Z,5332
2018-07-09T11:22:31.656Z,5504
2018-07-09T11:23:32.384Z,5828
2018-07-09T11:24:33.111Z,5948
2018-07-09T11:25:33.838Z,6208
2018-07-09T11:26:34.564Z,6476
2018-07-09T11:27:35.291Z,6988
2018-07-09T11:28:36.018Z,7264
2018-07-09T11:29:36.744Z,7584
2018-07-09T11:30:37.468Z,7576
2018-07-09T11:31:38.194Z,7124
2018-07-09T11:32:38.921Z,6708
2018-07-09T11:33:39.659Z,6592
2018-07-09T11:34:40.388Z,7248
2018-07-09T11:35:41.126Z,7800
2018-07-09T11:36:41.865Z,8404
2018-07-09T11:37:42.592Z,9392
2018-07-09T11:38:43.334Z,11696
2018-07-09T11:39:44.074Z,14164
2018-07-09T11:40:44.802Z,15252
2018-07-09T11:41:45.542Z,14776
2018-07-09T11:42:46.281Z,13980
2018-07-09T11:43:47.010Z,13056
2018-07-09T11:44:47.775Z,12040
2018-07-09T11:45:48.467Z,12576
2018-07-09T11:46:49.196Z,12376
2018-07-09T11:47:49.924Z,12096
2018-07-09T11:48:50.652Z,12288
2018-07-09T11:49:51.391Z,13252
2018-07-09T11:50:52.120Z,15044
2018-07-09T11:51:52.845Z,18048
2018-07-09T11:52:53.577Z,20064
2018-07-09T11:53:54.314Z,21504
2018-07-09T11:54:55.049Z,22912
2018-07-09T11:55:55.776Z,23712
2018-07-09T11:56:56.504Z,23904
2018-07-09T11:57:57.230Z,21312
2018-07-09T11:58:58.024Z,20512
2018-07-09T11:59:58.683Z,18048
2018-07-09T12:02:00.158Z,14696
2018-07-09T12:03:00.874Z,13576
2018-07-09T12:04:01.601Z,12240
2018-07-09T12:05:02.327Z,10744
2018-07-09T12:06:03.053Z,9468
2018-07-09T12:07:03.775Z,9312
2018-07-09T12:08:04.500Z,9540
2018-07-09T12:09:05.223Z,9860
2018-07-09T12:10:05.949Z,10120
2018-07-09T12:11:06.677Z,9812
2018-07-09T12:12:07.400Z,9468
2018-07-09T12:13:08.135Z,9100
2018-07-09T12:14:08.861Z,8716
2018-07-09T12:15:09.584Z,9052
2018-07-09T12:16:10.308Z,9856
2018-07-09T12:17:11.048Z,10120
2018-07-09T12:18:11.772Z,10268
2018-07-09T12:19:12.497Z,10800
2018-07-09T12:20:13.238Z,12268
2018-07-09T12:21:13.987Z,12668
2018-07-09T12:22:14.709Z,11844
2018-07-09T12:23:15.434Z,11348
2018-07-09T12:24:16.159Z,10572
2018-07-09T12:25:16.896Z,10980
2018-07-09T12:26:17.636Z,11400
2018-07-09T12:27:18.359Z,11176
2018-07-09T12:28:19.088Z,13844
2018-07-09T12:29:19.825Z,17952
2018-07-09T12:30:20.554Z,21312
2018-07-09T12:31:21.276Z,35136
2018-07-09T12:32:22.016Z,64704
2018-07-09T12:33:22.742Z,35648
2018-07-09T12:34:23.471Z,64768
2018-07-09T12:35:24.201Z,55680
2018-07-09T12:36:25.054Z,21792
2018-07-09T12:37:25.657Z,35296
2018-07-09T12:38:26.385Z,25376
2018-07-09T12:39:27.116Z,23104
2018-07-09T12:40:27.844Z,29216
2018-07-09T12:41:28.587Z,23104
2018-07-09T12:42:29.313Z,25568
2018-07-09T12:43:30.042Z,33280
2018-07-09T12:44:30.771Z,58592
2018-07-09T12:45:31.502Z,40352
2018-07-09T12:46:32.232Z,34688
2018-07-09T12:47:32.976Z,42624
2018-07-09T12:48:33.720Z,35840
2018-07-09T12:49:34.449Z,26720
2018-07-09T12:50:35.180Z,20128
2018-07-09T12:51:35.910Z,22080
2018-07-09T12:52:36.641Z,38048
2018-07-09T12:53:37.383Z,28768
2018-07-09T12:54:38.117Z,51648
2018-07-09T12:55:38.896Z,27360
2018-07-09T12:56:39.584Z,26144
2018-07-09T12:57:40.313Z,53120
2018-07-09T12:58:41.062Z,31488
2018-07-09T12:59:41.789Z,37344
2018-07-09T13:00:42.519Z,36512
2018-07-09T13:01:43.269Z,72448
2018-07-09T13:02:44.012Z,76640
2018-07-09T13:03:44.747Z,34528
2018-07-09T13:04:45.490Z,22560
2018-07-09T13:05:46.222Z,38880
2018-07-09T13:06:46.955Z,43040
2018-07-09T13:07:47.698Z,22784
2018-07-09T13:08:48.432Z,21088
2018-07-09T13:09:49.175Z,19840
2018-07-09T13:10:49.906Z,15708
2018-07-09T13:11:50.648Z,13812
2018-07-09T13:12:51.390Z,12344
2018-07-09T13:13:52.120Z,10384
2018-07-09T13:14:52.849Z,9652
2018-07-09T13:15:53.576Z,15840
2018-07-09T13:16:54.317Z,18336
2018-07-09T13:17:55.046Z,34080
2018-07-09T13:18:55.789Z,18144
2018-07-09T13:19:56.580Z,15152
2018-07-09T13:20:57.261Z,23424
2018-07-09T13:21:57.990Z,18368
2018-07-09T13:22:58.718Z,30848
2018-07-09T13:23:59.456Z,18144
2018-07-09T13:25:00.186Z,33888
2018-07-09T13:26:00.915Z,19712
2018-07-09T13:27:01.646Z,20128
2018-07-09T13:28:02.373Z,29216
2018-07-09T13:29:03.112Z,20928
2018-07-09T13:30:03.844Z,14300
2018-07-09T13:31:04.641Z,11492
2018-07-09T13:32:05.308Z,10924
2018-07-09T13:33:06.036Z,10492
2018-07-09T13:34:06.764Z,10524
2018-07-09T13:35:07.494Z,11564
2018-07-09T13:36:08.221Z,12336
2018-07-09T13:37:08.948Z,20128
2018-07-09T13:38:09.678Z,23872